createdAt,value
2022-10-09T00:01:23.212Z,99.90
2022-10-09T00:03:53.177Z,99.90
2022-10-09T00:06:27.146Z,99.90
2022-10-09T00:08:54.333Z,99.90
2022-10-09T00:11:24.086Z,99.90
2022-10-09T00:13:52.528Z,99.90
2022-10-09T00:16:21.449Z,99.90
2022-10-09T00:18:48.760Z,99.90
2022-10-09T00:21:23.038Z,99.90
2022-10-09T00:23:51.500Z,99.90
2022-10-09T00:26:18.581Z,99.90
2022-10-09T00:28:46.043Z,99.90
2022-10-09T00:31:14.336Z,99.90
2022-10-09T00:33:41.320Z,99.90
2022-10-09T00:36:11.390Z,99.90
2022-10-09T00:38:38.509Z,99.90
2022-10-09T00:41:06.229Z,99.90
2022-10-09T00:43:41.098Z,99.90
2022-10-09T00:46:20.640Z,99.90
2022-10-09T00:48:54.018Z,99.90
2022-10-09T00:51:21.103Z,99.90
2022-10-09T00:53:48.978Z,99.90
2022-10-09T00:56:15.867Z,99.90
2022-10-09T00:58:42.779Z,99.90
2022-10-09T01:01:09.661Z,99.90
2022-10-09T01:03:36.724Z,99.90
2022-10-09T01:06:17.385Z,99.90
2022-10-09T01:08:51.434Z,99.90
2022-10-09T01:11:36.445Z,99.90
2022-10-09T01:14:20.429Z,99.90
2022-10-09T01:17:24.294Z,99.90
2022-10-09T01:19:54.107Z,99.90
2022-10-09T01:22:26.785Z,99.90
2022-10-09T01:25:11.007Z,99.90
2022-10-09T01:27:38.638Z,99.90
2022-10-09T01:30:09.648Z,99.90
2022-10-09T01:32:47.156Z,99.90
2022-10-09T01:35:15.614Z,99.90
2022-10-09T01:37:46.005Z,99.90
2022-10-09T01:40:16.400Z,99.90
2022-10-09T01:42:43.695Z,99.90
2022-10-09T01:45:10.998Z,99.90
2022-10-09T01:47:38.279Z,99.90
2022-10-09T01:50:14.258Z,99.90
2022-10-09T01:53:03.470Z,99.90
2022-10-09T01:56:01.802Z,99.90
2022-10-09T01:58:51.922Z,99.90
2022-10-09T02:01:24.472Z,99.90
2022-10-09T02:03:53.460Z,99.90
2022-10-09T02:06:21.260Z,99.90
2022-10-09T02:08:51.335Z,99.90
2022-10-09T02:11:18.313Z,99.90
2022-10-09T02:13:47.981Z,99.90
2022-10-09T02:16:36.796Z,99.90
2022-10-09T02:19:13.540Z,99.90
2022-10-09T02:21:51.365Z,99.90
2022-10-09T02:24:22.766Z,99.90
2022-10-09T02:26:51.078Z,99.90
2022-10-09T02:29:18.323Z,99.90
2022-10-09T02:31:45.285Z,99.90
2022-10-09T02:34:16.418Z,99.90
2022-10-09T02:36:43.531Z,99.90
2022-10-09T02:39:10.600Z,99.90
2022-10-09T02:41:37.763Z,99.90
2022-10-09T02:44:05.947Z,99.90
2022-10-09T02:46:33.298Z,99.90
2022-10-09T02:49:00.236Z,99.90
2022-10-09T02:51:27.406Z,99.90
2022-10-09T02:53:55.124Z,99.90
2022-10-09T02:56:23.305Z,99.90
2022-10-09T02:58:50.288Z,99.90
2022-10-09T03:01:17.717Z,99.90
2022-10-09T03:03:45.597Z,99.90
2022-10-09T03:06:14.899Z,99.90
2022-10-09T03:08:44.584Z,99.90
2022-10-09T03:11:12.437Z,99.90
2022-10-09T03:13:39.843Z,99.90
2022-10-09T03:16:09.769Z,99.90
2022-10-09T03:18:37.672Z,99.90
2022-10-09T03:21:09.253Z,99.90
2022-10-09T03:23:37.378Z,99.90
2022-10-09T03:26:07.162Z,99.90
2022-10-09T03:28:39.269Z,99.90
2022-10-09T03:31:06.583Z,99.90
2022-10-09T03:33:36.981Z,99.90
2022-10-09T03:36:05.249Z,99.90
2022-10-09T03:38:32.034Z,99.90
2022-10-09T03:40:59.814Z,99.90
2022-10-09T03:43:26.996Z,99.90
2022-10-09T03:45:53.776Z,99.90
2022-10-09T03:48:21.000Z,99.90
2022-10-09T03:50:48.312Z,99.90
2022-10-09T03:53:18.736Z,99.90
2022-10-09T03:55:45.541Z,99.90
2022-10-09T03:58:12.370Z,99.90
2022-10-09T04:00:39.452Z,99.90
2022-10-09T04:03:06.350Z,99.90
2022-10-09T04:05:34.801Z,99.90
2022-10-09T04:08:01.670Z,99.90
2022-10-09T04:10:28.457Z,99.90
2022-10-09T04:12:55.278Z,99.90
2022-10-09T04:15:22.322Z,99.90
2022-10-09T04:17:49.142Z,99.90
2022-10-09T04:20:16.129Z,99.90
2022-10-09T04:22:42.933Z,99.90
2022-10-09T04:25:09.817Z,99.90
2022-10-09T04:27:36.631Z,99.90
2022-10-09T04:30:05.267Z,99.90
2022-10-09T04:32:32.129Z,99.90
2022-10-09T04:34:59.006Z,99.90
2022-10-09T04:37:25.921Z,99.90
2022-10-09T04:39:52.806Z,99.90
2022-10-09T04:42:19.566Z,99.90
2022-10-09T04:44:46.379Z,99.90
2022-10-09T04:47:13.289Z,99.90
2022-10-09T04:49:40.065Z,99.90
2022-10-09T04:52:06.892Z,99.90
2022-10-09T04:54:33.769Z,99.90
2022-10-09T04:57:00.594Z,99.90
2022-10-09T04:59:27.370Z,99.90
2022-10-09T05:01:54.584Z,99.90
2022-10-09T05:04:21.413Z,99.90
2022-10-09T05:06:48.300Z,99.90
2022-10-09T05:09:15.245Z,99.90
2022-10-09T05:11:42.902Z,99.90
2022-10-09T05:14:10.585Z,99.90
2022-10-09T05:17:00.886Z,99.90
2022-10-09T05:19:24.345Z,99.90
2022-10-09T05:21:51.173Z,99.90
2022-10-09T05:24:17.933Z,99.90
2022-10-09T05:26:44.851Z,99.90
2022-10-09T05:29:11.877Z,99.90
2022-10-09T05:31:38.758Z,99.90
2022-10-09T05:34:08.577Z,99.90
2022-10-09T05:36:35.398Z,99.90
2022-10-09T05:39:02.434Z,99.90
2022-10-09T05:41:29.797Z,99.90
2022-10-09T05:44:01.509Z,99.90
2022-10-09T05:46:29.856Z,99.90
2022-10-09T05:49:05.153Z,99.90
2022-10-09T05:51:38.041Z,99.90
2022-10-09T05:54:06.281Z,99.90
2022-10-09T05:56:36.218Z,99.90
2022-10-09T05:59:09.183Z,99.90
2022-10-09T06:01:40.742Z,99.90
2022-10-09T06:04:12.132Z,99.90
2022-10-09T06:06:40.127Z,99.90
2022-10-09T06:09:08.533Z,99.90
2022-10-09T06:11:37.304Z,99.90
2022-10-09T06:14:06.083Z,99.90
2022-10-09T06:16:35.651Z,99.90
2022-10-09T06:19:03.406Z,99.90
2022-10-09T06:21:30.295Z,99.90
2022-10-09T06:23:59.032Z,99.90
2022-10-09T06:26:29.205Z,99.90
2022-10-09T06:28:57.127Z,99.90
2022-10-09T06:31:26.448Z,99.90
2022-10-09T06:33:53.972Z,99.90
2022-10-09T06:36:24.029Z,99.90
2022-10-09T06:38:52.813Z,99.90
2022-10-09T06:41:22.048Z,99.90
2022-10-09T06:43:54.109Z,99.90
2022-10-09T06:46:23.845Z,99.90
2022-10-09T06:48:51.177Z,99.90
2022-10-09T06:51:20.228Z,99.90
2022-10-09T06:53:49.910Z,89.60
2022-10-09T06:56:18.165Z,92.50
2022-10-09T06:58:46.052Z,89.10
2022-10-09T07:01:24.738Z,72.60
2022-10-09T07:03:57.076Z,29.10
2022-10-09T07:06:31.805Z,18.00
2022-10-09T07:09:01.340Z,27.70
2022-10-09T07:11:33.457Z,45.50
2022-10-09T07:14:02.127Z,22.50
2022-10-09T07:16:31.676Z,10.70
2022-10-09T07:19:01.260Z,1.00
2022-10-09T07:21:28.020Z,3.20
2022-10-09T07:23:54.941Z,1.00
2022-10-09T07:26:26.835Z,1.50
2022-10-09T07:28:54.428Z,1.40
2022-10-09T07:31:21.448Z,1.00
2022-10-09T07:33:49.225Z,1.00
2022-10-09T07:51:31.755Z,2.80
2022-10-09T07:54:00.311Z,1.00
2022-10-09T07:56:32.844Z,1.00
2022-10-09T07:59:05.619Z,1.00
2022-10-09T08:01:33.783Z,1.00
2022-10-09T08:04:01.452Z,1.00
2022-10-09T08:06:28.384Z,16.20
2022-10-09T08:08:57.472Z,1.00
2022-10-09T08:11:26.165Z,1.00
2022-10-09T08:13:53.631Z,5.90
2022-10-09T08:16:21.654Z,13.30
2022-10-09T08:18:48.593Z,1.00
2022-10-09T08:21:17.725Z,1.00
2022-10-09T08:23:45.030Z,1.00
2022-10-09T08:26:16.082Z,1.00
2022-10-09T08:28:43.358Z,1.00
2022-10-09T08:31:15.378Z,1.00
2022-10-09T08:33:42.809Z,20.80
2022-10-09T08:36:14.384Z,16.20
2022-10-09T08:38:49.141Z,43.10
2022-10-09T08:41:24.839Z,58.20
2022-10-09T08:44:14.966Z,66.20
2022-10-09T08:47:10.874Z,69.70
2022-10-09T08:49:49.353Z,86.50
2022-10-09T08:52:47.851Z,89.90
2022-10-09T08:55:19.478Z,96.40
2022-10-09T08:57:53.506Z,93.20
2022-10-09T09:00:23.023Z,83.60
2022-10-09T09:03:02.289Z,84.00
2022-10-09T09:05:55.653Z,88.50
2022-10-09T09:08:44.204Z,92.50
2022-10-09T09:11:21.752Z,89.70
2022-10-09T09:14:15.113Z,91.50
2022-10-09T09:17:00.850Z,80.20
2022-10-09T09:19:27.615Z,76.60
2022-10-09T09:21:54.450Z,78.50
2022-10-09T09:24:38.396Z,74.80
2022-10-09T09:27:13.394Z,80.80
2022-10-09T09:29:47.026Z,81.70
2022-10-09T09:32:21.749Z,70.60
2022-10-09T09:34:49.084Z,82.10
2022-10-09T09:37:16.835Z,62.90
2022-10-09T09:40:34.414Z,55.10
2022-10-09T09:42:31.022Z,58.10
2022-10-09T09:45:04.330Z,53.60
2022-10-09T09:47:34.630Z,57.90
2022-10-09T09:50:04.235Z,43.60
2022-10-09T09:52:36.484Z,26.50
2022-10-09T09:55:04.866Z,10.60
2022-10-09T09:57:42.050Z,25.60
2022-10-09T10:00:23.444Z,17.50
2022-10-09T10:03:01.308Z,12.90
2022-10-09T10:05:28.323Z,13.00
2022-10-09T10:07:57.579Z,11.30
2022-10-09T10:10:26.773Z,14.60
2022-10-09T10:12:54.982Z,3.60
2022-10-09T10:15:33.122Z,11.40
2022-10-09T10:18:06.501Z,12.30
2022-10-09T10:20:46.121Z,12.10
2022-10-09T10:23:31.320Z,3.30
2022-10-09T10:26:00.469Z,1.00
2022-10-09T10:28:47.561Z,1.00
2022-10-09T10:31:35.451Z,1.00
2022-10-09T10:34:05.208Z,1.00
2022-10-09T10:36:33.843Z,1.00
2022-10-09T10:39:10.788Z,1.00
2022-10-09T10:41:45.248Z,1.00
2022-10-09T10:44:24.354Z,1.00
2022-10-09T10:47:00.013Z,1.00
2022-10-09T10:49:34.154Z,1.00
2022-10-09T10:52:24.086Z,1.00
2022-10-09T10:55:05.834Z,1.00
2022-10-09T10:57:47.683Z,1.00
2022-10-09T11:00:17.245Z,1.00
2022-10-09T11:03:19.343Z,1.00
2022-10-09T11:06:12.625Z,1.00
2022-10-09T11:09:05.410Z,1.00
2022-10-09T11:11:42.382Z,1.00
2022-10-09T11:14:38.870Z,1.00
2022-10-09T11:17:25.012Z,1.00
2022-10-09T11:19:57.677Z,1.00
2022-10-09T11:22:43.398Z,1.00
2022-10-09T11:25:22.888Z,1.00
2022-10-09T11:27:58.832Z,1.00
2022-10-09T11:30:28.601Z,1.00
2022-10-09T11:32:55.452Z,1.00
2022-10-09T11:35:24.869Z,1.00
2022-10-09T11:38:03.983Z,99.90
2022-10-09T11:40:41.695Z,99.90
2022-10-09T11:43:26.817Z,99.90
2022-10-09T11:46:01.485Z,99.90
2022-10-09T11:48:40.225Z,99.90
2022-10-09T11:51:29.049Z,99.90
2022-10-09T11:53:56.485Z,1.00
2022-10-09T11:56:24.930Z,99.90
2022-10-09T11:59:03.935Z,99.90
2022-10-09T12:01:39.923Z,2.30
2022-10-09T12:04:11.866Z,1.00
2022-10-09T12:07:00.601Z,61.80
2022-10-09T12:09:35.228Z,1.00
2022-10-09T12:12:16.995Z,1.00
2022-10-09T12:14:46.518Z,99.90
2022-10-09T12:17:22.420Z,99.90
2022-10-09T12:19:57.374Z,99.90
2022-10-09T12:22:33.589Z,1.00
2022-10-09T12:25:07.800Z,99.90
2022-10-09T12:27:40.454Z,1.00
2022-10-09T12:30:14.284Z,99.90
2022-10-09T12:32:52.828Z,1.00
2022-10-09T12:35:26.616Z,1.00
2022-10-09T12:37:53.620Z,1.00
2022-10-09T12:40:26.496Z,1.00
2022-10-09T12:42:55.029Z,1.00
2022-10-09T12:45:26.000Z,67.70
2022-10-09T12:47:54.416Z,99.90
2022-10-09T12:50:32.464Z,99.90
2022-10-09T12:53:03.006Z,99.90
2022-10-09T12:55:35.298Z,99.90
2022-10-09T12:58:32.012Z,99.90
2022-10-09T13:01:05.713Z,1.00
2022-10-09T13:03:36.806Z,1.00
2022-10-09T13:06:13.173Z,1.00
2022-10-09T13:08:40.735Z,99.90
2022-10-09T13:11:13.603Z,99.90
2022-10-09T13:13:40.776Z,1.00
2022-10-09T13:16:10.883Z,17.90
2022-10-09T13:18:38.437Z,1.00
2022-10-09T13:21:24.505Z,1.00
2022-10-09T13:23:51.326Z,1.00
2022-10-09T13:26:30.289Z,99.90
2022-10-09T13:28:59.415Z,99.90
2022-10-09T13:31:26.862Z,99.90
2022-10-09T13:33:53.821Z,1.00
2022-10-09T13:36:21.126Z,99.90
2022-10-09T13:38:49.125Z,1.00
2022-10-09T13:41:23.340Z,99.90
2022-10-09T13:43:54.033Z,99.90
2022-10-09T13:46:21.209Z,99.90
2022-10-09T13:48:48.590Z,1.00
2022-10-09T13:51:15.705Z,1.00
2022-10-09T13:53:42.652Z,1.00
2022-10-09T13:56:09.685Z,99.90
2022-10-09T13:58:36.954Z,86.90
2022-10-09T14:01:03.892Z,1.00
2022-10-09T14:03:30.768Z,1.00
2022-10-09T14:05:58.892Z,1.00
2022-10-09T14:08:26.249Z,1.00
2022-10-09T14:10:53.059Z,99.90
2022-10-09T14:13:20.750Z,1.00
2022-10-09T14:15:47.649Z,77.20
2022-10-09T14:18:14.861Z,1.00
2022-10-09T14:20:41.766Z,1.00
2022-10-09T14:23:09.391Z,99.90
2022-10-09T14:25:36.538Z,1.00
2022-10-09T14:28:03.731Z,15.60
2022-10-09T14:30:30.793Z,21.80
2022-10-09T14:32:57.907Z,99.90
2022-10-09T14:35:24.890Z,1.00
2022-10-09T14:37:51.779Z,1.00
2022-10-09T14:40:18.693Z,1.00
2022-10-09T14:42:45.545Z,1.00
2022-10-09T14:45:12.390Z,99.90
2022-10-09T14:47:39.220Z,99.90
2022-10-09T14:50:06.514Z,1.00
2022-10-09T14:52:33.689Z,30.80
2022-10-09T14:55:00.535Z,99.90
2022-10-09T14:57:30.228Z,99.90
2022-10-09T14:59:59.706Z,99.90
2022-10-09T15:02:26.455Z,1.00
2022-10-09T15:04:53.326Z,38.90
2022-10-09T15:07:20.929Z,1.00
2022-10-09T15:09:48.291Z,99.90
2022-10-09T15:12:15.205Z,99.90
2022-10-09T15:14:42.062Z,1.00
2022-10-09T15:17:08.927Z,99.90
2022-10-09T15:19:35.673Z,1.00
2022-10-09T15:22:02.489Z,99.90
2022-10-09T15:24:29.312Z,99.90
2022-10-09T15:26:56.121Z,99.90
2022-10-09T15:29:23.482Z,1.00
2022-10-09T15:31:53.731Z,99.90
2022-10-09T15:34:20.628Z,1.00
2022-10-09T15:36:47.427Z,92.60
2022-10-09T15:39:17.606Z,1.00
2022-10-09T15:41:49.174Z,1.00
2022-10-09T15:44:21.137Z,1.00
2022-10-09T15:46:49.492Z,1.00
2022-10-09T15:52:03.485Z,1.00
2022-10-09T15:54:30.364Z,99.90
2022-10-09T15:56:57.244Z,60.70
2022-10-09T15:59:25.753Z,99.90
2022-10-09T16:01:52.937Z,1.00
2022-10-09T16:04:19.821Z,1.00
2022-10-09T16:06:46.707Z,1.00
2022-10-09T16:09:14.054Z,1.00
2022-10-09T16:11:40.861Z,1.00
2022-10-09T16:14:07.642Z,99.90
2022-10-09T16:16:34.429Z,99.90
2022-10-09T16:19:03.876Z,99.90
2022-10-09T16:21:31.883Z,99.90
2022-10-09T16:23:59.759Z,1.00
2022-10-09T16:26:28.603Z,9.50
2022-10-09T16:28:55.600Z,1.00
2022-10-09T16:31:26.038Z,1.00
2022-10-09T16:33:53.335Z,99.90
2022-10-09T16:36:20.490Z,1.00
2022-10-09T16:38:47.691Z,1.00
2022-10-09T16:41:17.960Z,66.20
2022-10-09T16:43:47.026Z,99.90
2022-10-09T16:46:13.987Z,1.00
2022-10-09T16:48:41.084Z,1.00
2022-10-09T16:51:11.861Z,1.00
2022-10-09T16:53:39.338Z,9.20
2022-10-09T16:56:15.483Z,99.90
2022-10-09T16:58:43.401Z,48.80
2022-10-09T17:01:11.085Z,29.60
2022-10-09T17:03:42.419Z,1.00
2022-10-09T17:06:11.730Z,99.90
2022-10-09T17:08:41.602Z,99.90
2022-10-09T17:11:11.192Z,99.90
2022-10-09T17:13:38.831Z,99.90
2022-10-09T17:16:07.794Z,99.90
2022-10-09T17:18:36.172Z,99.90
2022-10-09T17:21:04.382Z,99.90
2022-10-09T17:23:31.625Z,99.90
2022-10-09T17:25:59.487Z,1.00
2022-10-09T17:28:26.636Z,1.00
2022-10-09T17:30:53.573Z,1.00
2022-10-09T17:33:20.398Z,1.00
2022-10-09T17:35:47.180Z,1.00
2022-10-09T17:38:14.083Z,1.00
2022-10-09T17:40:41.699Z,1.00
2022-10-09T17:43:08.888Z,1.00
2022-10-09T17:45:43.022Z,1.00
2022-10-09T17:48:10.226Z,1.00
2022-10-09T17:50:37.445Z,1.00
2022-10-09T17:53:05.299Z,1.00
2022-10-09T17:55:32.135Z,1.00
2022-10-09T17:57:59.073Z,1.00
2022-10-09T18:00:25.888Z,1.00
2022-10-09T18:02:52.679Z,1.00
2022-10-09T18:05:19.555Z,1.00
2022-10-09T18:07:46.351Z,1.00
2022-10-09T18:10:16.635Z,1.00
2022-10-09T18:12:43.748Z,1.00
2022-10-09T18:15:10.995Z,1.00
2022-10-09T18:17:37.896Z,1.00
2022-10-09T18:20:05.605Z,1.00
2022-10-09T18:22:34.762Z,1.00
2022-10-09T18:25:01.652Z,1.00
2022-10-09T18:27:29.030Z,1.00
2022-10-09T18:29:56.011Z,1.00
2022-10-09T18:32:22.953Z,1.00
2022-10-09T18:34:49.761Z,1.00
2022-10-09T18:37:19.360Z,1.00
2022-10-09T18:39:47.446Z,6.00
2022-10-09T18:42:14.571Z,21.90
2022-10-09T18:44:42.898Z,22.70
2022-10-09T18:47:14.611Z,24.60
2022-10-09T18:49:46.873Z,27.50
2022-10-09T18:52:15.225Z,30.00
2022-10-09T18:54:44.621Z,43.50
2022-10-09T18:57:11.949Z,45.10
2022-10-09T18:59:39.662Z,51.50
2022-10-09T19:02:09.453Z,57.70
2022-10-09T19:04:36.276Z,52.00
2022-10-09T19:07:03.457Z,58.70
2022-10-09T19:09:30.446Z,63.10
2022-10-09T19:11:57.241Z,66.40
2022-10-09T19:14:24.061Z,74.50
2022-10-09T19:16:50.955Z,80.70
2022-10-09T19:19:18.333Z,84.60
2022-10-09T19:21:45.473Z,86.80
2022-10-09T19:24:13.666Z,90.10
2022-10-09T19:26:41.109Z,91.40
2022-10-09T19:29:08.621Z,92.10
2022-10-09T19:31:36.448Z,94.60
2022-10-09T19:34:05.220Z,95.60
2022-10-09T19:36:36.739Z,96.30
2022-10-09T19:39:05.435Z,99.00
2022-10-09T19:41:32.298Z,99.80
2022-10-09T19:44:00.051Z,99.30
2022-10-09T19:46:27.783Z,99.90
2022-10-09T19:48:54.702Z,99.90
2022-10-09T19:51:23.776Z,99.90
2022-10-09T19:53:52.166Z,99.90
2022-10-09T19:56:24.976Z,99.90
2022-10-09T19:58:52.866Z,99.90
2022-10-09T20:01:23.599Z,99.90
2022-10-09T20:03:55.741Z,99.90
2022-10-09T20:06:22.620Z,99.90
2022-10-09T20:08:49.576Z,99.90
2022-10-09T20:11:20.376Z,99.90
2022-10-09T20:13:50.954Z,99.90
2022-10-09T20:16:20.380Z,99.90
2022-10-09T20:18:47.345Z,99.90
2022-10-09T20:21:16.596Z,99.90
2022-10-09T20:23:44.383Z,99.90
2022-10-09T20:26:17.233Z,99.90
2022-10-09T20:28:45.119Z,99.90
2022-10-09T20:31:18.609Z,99.90
2022-10-09T20:33:47.678Z,99.90
2022-10-09T20:36:25.458Z,99.90
2022-10-09T20:38:57.685Z,99.90
2022-10-09T20:41:25.627Z,99.90
2022-10-09T20:43:53.940Z,99.90
2022-10-09T20:46:23.854Z,99.90
2022-10-09T20:48:52.302Z,99.90
2022-10-09T20:51:19.877Z,99.90
2022-10-09T20:53:50.802Z,99.90
2022-10-09T20:56:17.625Z,99.90
2022-10-09T20:58:44.489Z,99.90
2022-10-09T21:01:12.515Z,99.90
2022-10-09T21:03:39.393Z,99.90
2022-10-09T21:06:08.906Z,99.90
2022-10-09T21:08:36.143Z,99.90
2022-10-09T21:11:06.773Z,99.90
2022-10-09T21:13:34.423Z,99.90
2022-10-09T21:16:04.344Z,99.90
2022-10-09T21:18:31.260Z,99.90
2022-10-09T21:21:02.718Z,99.90
2022-10-09T21:23:35.948Z,99.90
2022-10-09T21:26:03.864Z,99.90
2022-10-09T21:28:33.518Z,99.90
2022-10-09T21:31:00.431Z,99.90
2022-10-09T21:33:27.253Z,99.90
2022-10-09T21:35:55.460Z,99.90
2022-10-09T21:38:23.872Z,99.90
2022-10-09T21:40:51.175Z,99.90
2022-10-09T21:43:18.845Z,99.90
2022-10-09T21:45:50.390Z,99.90
2022-10-09T21:48:18.778Z,99.90
2022-10-09T21:50:45.953Z,99.90
2022-10-09T21:53:13.141Z,99.90
2022-10-09T21:55:40.232Z,99.90
2022-10-09T21:58:07.605Z,99.90
2022-10-09T22:00:34.677Z,99.90
2022-10-09T22:03:01.515Z,99.90
2022-10-09T22:05:28.330Z,99.90
2022-10-09T22:07:55.128Z,99.90
2022-10-09T22:10:22.340Z,99.90
2022-10-09T22:12:50.149Z,99.90
2022-10-09T22:15:17.473Z,99.90
2022-10-09T22:17:44.496Z,99.90
2022-10-09T22:20:11.325Z,99.90
2022-10-09T22:22:38.123Z,99.90
2022-10-09T22:25:05.461Z,99.90
2022-10-09T22:27:32.312Z,99.90
2022-10-09T22:29:59.129Z,99.90
2022-10-09T22:32:26.027Z,99.90
2022-10-09T22:34:53.159Z,99.90
2022-10-09T22:37:19.990Z,99.90
2022-10-09T22:39:46.992Z,99.90
2022-10-09T22:42:13.854Z,99.90
2022-10-09T22:44:40.718Z,99.90
2022-10-09T22:47:07.544Z,99.90
2022-10-09T22:49:35.441Z,99.90
2022-10-09T22:52:02.257Z,99.90
2022-10-09T22:54:29.064Z,99.90
2022-10-09T22:56:55.855Z,99.90
2022-10-09T22:59:23.082Z,99.90
2022-10-09T23:01:53.631Z,99.90
2022-10-09T23:04:21.817Z,99.90
2022-10-09T23:06:56.873Z,99.90
2022-10-09T23:09:26.331Z,99.90
2022-10-09T23:11:53.349Z,99.90
2022-10-09T23:14:20.573Z,99.90
2022-10-09T23:16:47.890Z,99.90
2022-10-09T23:19:15.399Z,99.90
2022-10-09T23:21:43.775Z,99.90
2022-10-09T23:24:17.751Z,99.90
2022-10-09T23:26:46.335Z,99.90
2022-10-09T23:29:16.857Z,99.90
2022-10-09T23:31:44.533Z,99.90
2022-10-09T23:34:11.424Z,99.90
2022-10-09T23:36:41.111Z,99.90
2022-10-09T23:39:08.066Z,99.90
2022-10-09T23:41:34.945Z,99.90
2022-10-09T23:44:02.067Z,99.90
2022-10-09T23:46:32.980Z,99.90
2022-10-09T23:49:00.268Z,99.90
2022-10-09T23:51:27.397Z,99.90
2022-10-09T23:53:54.751Z,99.90
2022-10-09T23:56:30.267Z,99.90
2022-10-09T23:58:58.817Z,99.90
